CheckWX is a tool to help pilots better visualize weather data.  It is not intended as a substitute for an official pre-flight weather briefing.

06:30:29 UTC

KMCX METAR
White County Airport
Monticello, Indiana, USA
Current

15 mins ago

KMCX 190615Z AUTO 11003KT 10SM CLR 18/13 A3010 RMK AO2 T01790131
Observed
Sep-19 @ 06:15 UTC
Wind
  • 110° at 3 KTS
Visibility
10 SM
Flight Rules
VFR
Cloud Levels
  • Clear skies
Temperature
18°C / 64°F
Dewpoint
13°C / 55°F
Humidity
73%
Altimeter
30.1" Hg
Pressure
1019.32 hPa
Previous

35 mins ago

KMCX 190555Z AUTO 10004KT 10SM CLR 18/14 A3010 RMK AO2 T01790135 10240 20179
Observed
Sep-19 @ 05:55 UTC
Wind
  • 100° at 4 KTS
Visibility
10 SM
Flight Rules
VFR
Cloud Levels
  • Clear skies
Temperature
18°C / 64°F
Dewpoint
14°C / 57°F
Humidity
78%
Altimeter
30.1" Hg
Pressure
1019.32 hPa
Previous

55 mins ago

KMCX 190535Z AUTO 09004KT 10SM CLR 18/14 A3009 RMK AO2 T01820138
Observed
Sep-19 @ 05:35 UTC
Wind
  • 090° at 4 KTS
Visibility
10 SM
Flight Rules
VFR
Cloud Levels
  • Clear skies
Temperature
18°C / 64°F
Dewpoint
14°C / 57°F
Humidity
78%
Altimeter
30.09" Hg
Pressure
1018.92 hPa